sensor_id;sensor_type;location;lat;lon;timestamp;pressure;altitude;pressure_sealevel;temperature;humidity
65897;BME280;52677;50.898;10.854;2023-10-09T00:01:24;98946.03;;;9.90;100.00
65897;BME280;52677;50.898;10.854;2023-10-09T00:03:24;98934.53;;;9.88;100.00
65897;BME280;52677;50.898;10.854;2023-10-09T00:05:24;98947.56;;;9.87;100.00
65897;BME280;52677;50.898;10.854;2023-10-09T00:07:38;98949.06;;;9.84;100.00
65897;BME280;52677;50.898;10.854;2023-10-09T00:09:40;98954.94;;;9.83;100.00
65897;BME280;52677;50.898;10.854;2023-10-09T00:11:46;98954.94;;;9.83;100.00
65897;BME280;52677;50.898;10.854;2023-10-09T00:13:48;98947.41;;;9.80;100.00
65897;BME280;52677;50.898;10.854;2023-10-09T00:15:52;98943.41;;;9.77;100.00
65897;BME280;52677;50.898;10.854;2023-10-09T00:17:57;98950.53;;;9.78;100.00
65897;BME280;52677;50.898;10.854;2023-10-09T00:19:58;98936.59;;;9.75;100.00
65897;BME280;52677;50.898;10.854;2023-10-09T00:22:18;98932.19;;;9.70;100.00
65897;BME280;52677;50.898;10.854;2023-10-09T00:24:24;98928.25;;;9.71;100.00
65897;BME280;52677;50.898;10.854;2023-10-09T00:26:25;98924.31;;;9.72;100.00
65897;BME280;52677;50.898;10.854;2023-10-09T00:28:26;98922.28;;;9.69;100.00
65897;BME280;52677;50.898;10.854;2023-10-09T00:30:26;98913.53;;;9.67;100.00
65897;BME280;52677;50.898;10.854;2023-10-09T00:32:30;98901.69;;;9.67;100.00
65897;BME280;52677;50.898;10.854;2023-10-09T00:34:34;98895.00;;;9.68;100.00
65897;BME280;52677;50.898;10.854;2023-10-09T00:36:39;98896.53;;;9.65;100.00
65897;BME280;52677;50.898;10.854;2023-10-09T00:38:50;98890.22;;;9.65;100.00
65897;BME280;52677;50.898;10.854;2023-10-09T00:40:52;98896.09;;;9.63;100.00
65897;BME280;52677;50.898;10.854;2023-10-09T00:43:13;98890.00;;;9.54;100.00
65897;BME280;52677;50.898;10.854;2023-10-09T00:45:14;98893.38;;;9.47;100.00
65897;BME280;52677;50.898;10.854;2023-10-09T00:47:24;98881.81;;;9.42;100.00
65897;BME280;52677;50.898;10.854;2023-10-09T00:49:34;98873.47;;;9.38;100.00
65897;BME280;52677;50.898;10.854;2023-10-09T00:51:35;98877.03;;;9.39;100.00
65897;BME280;52677;50.898;10.854;2023-10-09T00:53:36;98872.94;;;9.33;100.00
65897;BME280;52677;50.898;10.854;2023-10-09T00:55:36;98876.06;;;9.31;100.00
65897;BME280;52677;50.898;10.854;2023-10-09T00:57:45;98870.91;;;9.29;100.00
65897;BME280;52677;50.898;10.854;2023-10-09T00:59:53;98861.03;;;9.28;100.00
65897;BME280;52677;50.898;10.854;2023-10-09T01:01:59;98855.03;;;9.26;100.00
65897;BME280;52677;50.898;10.854;2023-10-09T01:04:05;98860.50;;;9.23;100.00
65897;BME280;52677;50.898;10.854;2023-10-09T01:06:07;98843.38;;;9.17;100.00
65897;BME280;52677;50.898;10.854;2023-10-09T01:08:10;98849.56;;;9.11;100.00
65897;BME280;52677;50.898;10.854;2023-10-09T01:10:18;98850.56;;;9.03;100.00
65897;BME280;52677;50.898;10.854;2023-10-09T01:12:19;98851.19;;;8.96;100.00
65897;BME280;52677;50.898;10.854;2023-10-09T01:14:19;98850.59;;;8.87;100.00
65897;BME280;52677;50.898;10.854;2023-10-09T01:16:23;98851.66;;;8.82;100.00
65897;BME280;52677;50.898;10.854;2023-10-09T01:18:25;98851.09;;;8.77;100.00
65897;BME280;52677;50.898;10.854;2023-10-09T01:20:32;98855.38;;;8.74;100.00
65897;BME280;52677;50.898;10.854;2023-10-09T01:22:41;98862.06;;;8.73;100.00
65897;BME280;52677;50.898;10.854;2023-10-09T01:24:43;98849.00;;;8.70;100.00
65897;BME280;52677;50.898;10.854;2023-10-09T01:26:44;98847.66;;;8.64;100.00
65897;BME280;52677;50.898;10.854;2023-10-09T01:28:44;98842.38;;;8.59;100.00
65897;BME280;52677;50.898;10.854;2023-10-09T01:30:46;98838.31;;;8.53;100.00
65897;BME280;52677;50.898;10.854;2023-10-09T01:32:47;98832.81;;;8.53;100.00
65897;BME280;52677;50.898;10.854;2023-10-09T01:34:48;98840.16;;;8.49;100.00
65897;BME280;52677;50.898;10.854;2023-10-09T01:36:52;98830.56;;;8.42;100.00
65897;BME280;52677;50.898;10.854;2023-10-09T01:39:00;98825.41;;;8.41;100.00
65897;BME280;52677;50.898;10.854;2023-10-09T01:41:13;98818.66;;;8.38;100.00
65897;BME280;52677;50.898;10.854;2023-10-09T01:43:19;98818.06;;;8.33;100.00
65897;BME280;52677;50.898;10.854;2023-10-09T01:45:21;98813.72;;;8.32;100.00
65897;BME280;52677;50.898;10.854;2023-10-09T01:47:22;98809.44;;;8.34;100.00
65897;BME280;52677;50.898;10.854;2023-10-09T01:49:22;98809.78;;;8.33;100.00
65897;BME280;52677;50.898;10.854;2023-10-09T01:51:29;98806.25;;;8.32;100.00
65897;BME280;52677;50.898;10.854;2023-10-09T01:53:34;98808.63;;;8.34;100.00
65897;BME280;52677;50.898;10.854;2023-10-09T01:55:38;98796.00;;;8.33;100.00
65897;BME280;52677;50.898;10.854;2023-10-09T01:57:45;98798.22;;;8.27;100.00
65897;BME280;52677;50.898;10.854;2023-10-09T01:59:46;98797.09;;;8.28;100.00
65897;BME280;52677;50.898;10.854;2023-10-09T02:01:53;98796.56;;;8.23;100.00
65897;BME280;52677;50.898;10.854;2023-10-09T02:03:58;98793.25;;;8.17;100.00
65897;BME280;52677;50.898;10.854;2023-10-09T02:06:05;98796.72;;;8.14;100.00
65897;BME280;52677;50.898;10.854;2023-10-09T02:08:18;98787.72;;;8.17;100.00
65897;BME280;52677;50.898;10.854;2023-10-09T02:10:23;98777.00;;;8.12;100.00
65897;BME280;52677;50.898;10.854;2023-10-09T02:12:29;98782.94;;;8.14;100.00
65897;BME280;52677;50.898;10.854;2023-10-09T02:14:33;98788.63;;;8.05;100.00
65897;BME280;52677;50.898;10.854;2023-10-09T02:16:41;98782.91;;;7.98;100.00
65897;BME280;52677;50.898;10.854;2023-10-09T02:18:42;98782.91;;;7.98;100.00
65897;BME280;52677;50.898;10.854;2023-10-09T02:23:05;98783.09;;;7.89;100.00
65897;BME280;52677;50.898;10.854;2023-10-09T02:25:13;98785.03;;;7.89;100.00
65897;BME280;52677;50.898;10.854;2023-10-09T02:27:14;98772.31;;;7.84;100.00
65897;BME280;52677;50.898;10.854;2023-10-09T02:29:35;98770.03;;;7.86;100.00
65897;BME280;52677;50.898;10.854;2023-10-09T02:31:42;98774.81;;;7.89;100.00
65897;BME280;52677;50.898;10.854;2023-10-09T02:33:46;98776.22;;;7.83;100.00
65897;BME280;52677;50.898;10.854;2023-10-09T02:35:48;98776.50;;;7.78;100.00
65897;BME280;52677;50.898;10.854;2023-10-09T02:37:51;98772.59;;;7.79;100.00
65897;BME280;52677;50.898;10.854;2023-10-09T02:39:53;98774.19;;;7.80;100.00
65897;BME280;52677;50.898;10.854;2023-10-09T02:41:54;98765.47;;;7.78;100.00
65897;BME280;52677;50.898;10.854;2023-10-09T02:43:58;98765.91;;;7.80;100.00
65897;BME280;52677;50.898;10.854;2023-10-09T02:46:11;98749.59;;;7.87;100.00
65897;BME280;52677;50.898;10.854;2023-10-09T02:48:18;98757.13;;;7.91;100.00
65897;BME280;52677;50.898;10.854;2023-10-09T02:50:25;98749.78;;;7.95;100.00
65897;BME280;52677;50.898;10.854;2023-10-09T02:52:28;98744.25;;;7.95;100.00
65897;BME280;52677;50.898;10.854;2023-10-09T02:54:33;98741.59;;;7.98;100.00
65897;BME280;52677;50.898;10.854;2023-10-09T02:56:41;98742.38;;;7.99;100.00
65897;BME280;52677;50.898;10.854;2023-10-09T02:58:47;98743.53;;;7.98;100.00
65897;BME280;52677;50.898;10.854;2023-10-09T03:00:48;98732.09;;;7.96;100.00
65897;BME280;52677;50.898;10.854;2023-10-09T03:02:48;98734.31;;;8.06;100.00
65897;BME280;52677;50.898;10.854;2023-10-09T03:04:50;98740.25;;;8.08;100.00
65897;BME280;52677;50.898;10.854;2023-10-09T03:06:55;98733.59;;;8.09;100.00
65897;BME280;52677;50.898;10.854;2023-10-09T03:08:57;98739.22;;;8.12;100.00
65897;BME280;52677;50.898;10.854;2023-10-09T03:10:58;98733.78;;;8.16;100.00
65897;BME280;52677;50.898;10.854;2023-10-09T03:13:00;98743.44;;;8.26;100.00
65897;BME280;52677;50.898;10.854;2023-10-09T03:15:04;98748.78;;;8.34;100.00
65897;BME280;52677;50.898;10.854;2023-10-09T03:17:08;98742.47;;;8.34;100.00
65897;BME280;52677;50.898;10.854;2023-10-09T03:19:11;98746.84;;;8.35;100.00
65897;BME280;52677;50.898;10.854;2023-10-09T03:21:11;98751.25;;;8.36;100.00
65897;BME280;52677;50.898;10.854;2023-10-09T03:23:12;98754.88;;;8.40;100.00
65897;BME280;52677;50.898;10.854;2023-10-09T03:25:14;98758.44;;;8.40;100.00
65897;BME280;52677;50.898;10.854;2023-10-09T03:27:17;98740.81;;;8.45;100.00
65897;BME280;52677;50.898;10.854;2023-10-09T03:29:18;98751.56;;;8.50;100.00
65897;BME280;52677;50.898;10.854;2023-10-09T03:31:19;98752.38;;;8.51;100.00
65897;BME280;52677;50.898;10.854;2023-10-09T03:33:20;98752.00;;;8.52;100.00
65897;BME280;52677;50.898;10.854;2023-10-09T03:35:21;98747.75;;;8.55;100.00
65897;BME280;52677;50.898;10.854;2023-10-09T03:37:25;98742.66;;;8.57;100.00
65897;BME280;52677;50.898;10.854;2023-10-09T03:39:35;98748.63;;;8.59;100.00
65897;BME280;52677;50.898;10.854;2023-10-09T03:41:47;98760.97;;;8.65;100.00
65897;BME280;52677;50.898;10.854;2023-10-09T03:43:47;98747.25;;;8.68;100.00
65897;BME280;52677;50.898;10.854;2023-10-09T03:45:48;98750.13;;;8.72;100.00
65897;BME280;52677;50.898;10.854;2023-10-09T03:47:57;98738.81;;;8.77;100.00
65897;BME280;52677;50.898;10.854;2023-10-09T03:50:15;98740.84;;;8.80;100.00
65897;BME280;52677;50.898;10.854;2023-10-09T03:52:35;98735.94;;;8.89;100.00
65897;BME280;52677;50.898;10.854;2023-10-09T03:54:36;98720.69;;;8.95;100.00
65897;BME280;52677;50.898;10.854;2023-10-09T03:56:38;98723.66;;;9.06;100.00
65897;BME280;52677;50.898;10.854;2023-10-09T03:58:39;98717.88;;;9.11;100.00
65897;BME280;52677;50.898;10.854;2023-10-09T04:00:42;98727.91;;;9.19;100.00
65897;BME280;52677;50.898;10.854;2023-10-09T04:02:45;98711.84;;;9.25;100.00
65897;BME280;52677;50.898;10.854;2023-10-09T04:04:45;98704.00;;;9.27;100.00
65897;BME280;52677;50.898;10.854;2023-10-09T04:06:50;98697.66;;;9.26;100.00
65897;BME280;52677;50.898;10.854;2023-10-09T04:08:51;98690.19;;;9.27;100.00
65897;BME280;52677;50.898;10.854;2023-10-09T04:10:52;98686.63;;;9.26;100.00
65897;BME280;52677;50.898;10.854;2023-10-09T04:12:52;98680.28;;;9.26;100.00
65897;BME280;52677;50.898;10.854;2023-10-09T04:14:53;98673.63;;;9.27;100.00
65897;BME280;52677;50.898;10.854;2023-10-09T04:17:04;98662.94;;;9.25;100.00
65897;BME280;52677;50.898;10.854;2023-10-09T04:19:09;98653.47;;;9.26;100.00
65897;BME280;52677;50.898;10.854;2023-10-09T04:21:11;98642.81;;;9.25;100.00
65897;BME280;52677;50.898;10.854;2023-10-09T04:23:34;98641.31;;;9.27;100.00
65897;BME280;52677;50.898;10.854;2023-10-09T04:25:57;98631.53;;;9.34;100.00
65897;BME280;52677;50.898;10.854;2023-10-09T04:28:00;98633.81;;;9.51;100.00
65897;BME280;52677;50.898;10.854;2023-10-09T04:30:10;98631.28;;;9.62;100.00
65897;BME280;52677;50.898;10.854;2023-10-09T04:32:15;98631.06;;;9.74;100.00
65897;BME280;52677;50.898;10.854;2023-10-09T04:34:19;98627.34;;;9.85;100.00
65897;BME280;52677;50.898;10.854;2023-10-09T04:36:22;98623.31;;;10.06;100.00
65897;BME280;52677;50.898;10.854;2023-10-09T04:38:23;98619.75;;;10.28;100.00
65897;BME280;52677;50.898;10.854;2023-10-09T04:40:23;98631.69;;;10.62;100.00
65897;BME280;52677;50.898;10.854;2023-10-09T04:42:51;98635.16;;;10.86;100.00
65897;BME280;52677;50.898;10.854;2023-10-09T04:45:06;98631.56;;;11.15;100.00
65897;BME280;52677;50.898;10.854;2023-10-09T04:47:06;98633.72;;;11.33;100.00
65897;BME280;52677;50.898;10.854;2023-10-09T04:49:10;98643.44;;;11.53;100.00
65897;BME280;52677;50.898;10.854;2023-10-09T04:51:31;98632.50;;;11.67;100.00
65897;BME280;52677;50.898;10.854;2023-10-09T04:53:37;98623.91;;;11.79;100.00
65897;BME280;52677;50.898;10.854;2023-10-09T04:55:44;98639.91;;;11.93;100.00
65897;BME280;52677;50.898;10.854;2023-10-09T04:57:54;98639.13;;;11.96;100.00
65897;BME280;52677;50.898;10.854;2023-10-09T05:02:24;98641.13;;;11.99;100.00
65897;BME280;52677;50.898;10.854;2023-10-09T05:04:25;98642.28;;;11.95;100.00
65897;BME280;52677;50.898;10.854;2023-10-09T05:06:37;98651.84;;;12.01;100.00
65897;BME280;52677;50.898;10.854;2023-10-09T05:08:54;98643.50;;;11.97;100.00
65897;BME280;52677;50.898;10.854;2023-10-09T05:11:02;98653.31;;;11.91;100.00
65897;BME280;52677;50.898;10.854;2023-10-09T05:13:03;98652.91;;;11.89;100.00
65897;BME280;52677;50.898;10.854;2023-10-09T05:15:03;98644.66;;;11.93;100.00
65897;BME280;52677;50.898;10.854;2023-10-09T05:17:08;98649.91;;;12.05;100.00
65897;BME280;52677;50.898;10.854;2023-10-09T05:19:15;98655.47;;;12.08;100.00
65897;BME280;52677;50.898;10.854;2023-10-09T05:21:42;98643.56;;;12.08;100.00
65897;BME280;52677;50.898;10.854;2023-10-09T05:23:42;98644.75;;;12.07;100.00
65897;BME280;52677;50.898;10.854;2023-10-09T05:26:08;98643.16;;;12.06;100.00
65897;BME280;52677;50.898;10.854;2023-10-09T05:28:29;98643.63;;;12.15;100.00
65897;BME280;52677;50.898;10.854;2023-10-09T05:30:32;98649.69;;;12.31;100.00
65897;BME280;52677;50.898;10.854;2023-10-09T05:32:34;98647.03;;;12.46;100.00
65897;BME280;52677;50.898;10.854;2023-10-09T05:34:47;98639.59;;;12.64;100.00
65897;BME280;52677;50.898;10.854;2023-10-09T05:37:04;98644.78;;;12.69;100.00
65897;BME280;52677;50.898;10.854;2023-10-09T05:39:25;98648.75;;;12.68;100.00
65897;BME280;52677;50.898;10.854;2023-10-09T05:41:41;98663.41;;;12.65;100.00
65897;BME280;52677;50.898;10.854;2023-10-09T05:43:59;98657.44;;;12.59;100.00
65897;BME280;52677;50.898;10.854;2023-10-09T05:46:18;98663.78;;;12.60;100.00
65897;BME280;52677;50.898;10.854;2023-10-09T05:48:18;98660.63;;;12.61;100.00
65897;BME280;52677;50.898;10.854;2023-10-09T05:50:19;98654.63;;;12.56;100.00
65897;BME280;52677;50.898;10.854;2023-10-09T05:52:34;98653.78;;;12.48;100.00
65897;BME280;52677;50.898;10.854;2023-10-09T05:54:38;98657.31;;;12.42;100.00
65897;BME280;52677;50.898;10.854;2023-10-09T05:56:57;98661.97;;;12.30;100.00
65897;BME280;52677;50.898;10.854;2023-10-09T05:59:20;98668.25;;;12.20;100.00
65897;BME280;52677;50.898;10.854;2023-10-09T06:01:55;98667.00;;;12.14;100.00
65897;BME280;52677;50.898;10.854;2023-10-09T06:04:07;98670.16;;;12.09;100.00
65897;BME280;52677;50.898;10.854;2023-10-09T06:06:15;98659.00;;;12.05;100.00
65897;BME280;52677;50.898;10.854;2023-10-09T06:08:33;98659.41;;;12.04;100.00
65897;BME280;52677;50.898;10.854;2023-10-09T06:10:42;98666.13;;;12.03;100.00
65897;BME280;52677;50.898;10.854;2023-10-09T06:12:42;98671.69;;;12.06;100.00
65897;BME280;52677;50.898;10.854;2023-10-09T06:14:42;98668.97;;;12.10;100.00
65897;BME280;52677;50.898;10.854;2023-10-09T06:16:43;98670.97;;;12.13;100.00
65897;BME280;52677;50.898;10.854;2023-10-09T06:18:47;98682.13;;;12.20;100.00
65897;BME280;52677;50.898;10.854;2023-10-09T06:21:08;98689.72;;;12.27;100.00
65897;BME280;52677;50.898;10.854;2023-10-09T06:23:28;98692.91;;;12.32;100.00
65897;BME280;52677;50.898;10.854;2023-10-09T06:25:48;98692.56;;;12.41;100.00
65897;BME280;52677;50.898;10.854;2023-10-09T06:27:51;98697.38;;;12.44;100.00
65897;BME280;52677;50.898;10.854;2023-10-09T06:29:58;98691.88;;;12.51;100.00
65897;BME280;52677;50.898;10.854;2023-10-09T06:32:13;98688.38;;;12.61;100.00
65897;BME280;52677;50.898;10.854;2023-10-09T06:34:17;98687.22;;;12.70;100.00
65897;BME280;52677;50.898;10.854;2023-10-09T06:36:18;98692.00;;;12.73;100.00
65897;BME280;52677;50.898;10.854;2023-10-09T06:38:18;98690.44;;;12.75;100.00
65897;BME280;52677;50.898;10.854;2023-10-09T06:40:23;98690.47;;;12.79;100.00
65897;BME280;52677;50.898;10.854;2023-10-09T06:42:43;98700.03;;;12.88;100.00
65897;BME280;52677;50.898;10.854;2023-10-09T06:44:44;98694.13;;;12.97;100.00
65897;BME280;52677;50.898;10.854;2023-10-09T06:46:53;98700.94;;;13.14;100.00
65897;BME280;52677;50.898;10.854;2023-10-09T06:48:57;98701.84;;;13.25;100.00
65897;BME280;52677;50.898;10.854;2023-10-09T06:51:13;98702.25;;;13.31;100.00
65897;BME280;52677;50.898;10.854;2023-10-09T06:53:25;98702.25;;;13.31;100.00
65897;BME280;52677;50.898;10.854;2023-10-09T06:55:46;98706.66;;;13.35;100.00
65897;BME280;52677;50.898;10.854;2023-10-09T06:57:49;98697.53;;;13.35;100.00
65897;BME280;52677;50.898;10.854;2023-10-09T06:59:53;98705.09;;;13.41;100.00
65897;BME280;52677;50.898;10.854;2023-10-09T07:02:12;98703.06;;;13.38;100.00
65897;BME280;52677;50.898;10.854;2023-10-09T07:04:27;98709.03;;;13.40;100.00
65897;BME280;52677;50.898;10.854;2023-10-09T07:06:30;98704.69;;;13.43;100.00
65897;BME280;52677;50.898;10.854;2023-10-09T07:08:37;98713.47;;;13.56;100.00
65897;BME280;52677;50.898;10.854;2023-10-09T07:10:37;98715.50;;;13.66;100.00
65897;BME280;52677;50.898;10.854;2023-10-09T07:12:39;98719.06;;;13.66;100.00
65897;BME280;52677;50.898;10.854;2023-10-09T07:14:44;98724.63;;;13.66;100.00
65897;BME280;52677;50.898;10.854;2023-10-09T07:16:44;98729.00;;;13.71;100.00
65897;BME280;52677;50.898;10.854;2023-10-09T07:19:19;98729.03;;;13.74;100.00
65897;BME280;52677;50.898;10.854;2023-10-09T07:21:36;98725.81;;;13.72;100.00
65897;BME280;52677;50.898;10.854;2023-10-09T07:23:38;98730.59;;;13.68;100.00
65897;BME280;52677;50.898;10.854;2023-10-09T07:25:48;98733.78;;;13.67;100.00
65897;BME280;52677;50.898;10.854;2023-10-09T07:27:59;98726.59;;;13.62;100.00
65897;BME280;52677;50.898;10.854;2023-10-09T07:30:00;98726.19;;;13.64;100.00
65897;BME280;52677;50.898;10.854;2023-10-09T07:32:00;98721.84;;;13.70;100.00
65897;BME280;52677;50.898;10.854;2023-10-09T07:34:12;98717.88;;;13.71;100.00
65897;BME280;52677;50.898;10.854;2023-10-09T07:36:31;98732.56;;;13.71;100.00
65897;BME280;52677;50.898;10.854;2023-10-09T07:38:34;98726.63;;;13.69;100.00
65897;BME280;52677;50.898;10.854;2023-10-09T07:40:38;98734.19;;;13.76;100.00
65897;BME280;52677;50.898;10.854;2023-10-09T07:42:57;98734.59;;;13.78;100.00
65897;BME280;52677;50.898;10.854;2023-10-09T07:45:05;98740.16;;;13.78;100.00
65897;BME280;52677;50.898;10.854;2023-10-09T07:47:21;98738.59;;;13.84;100.00
65897;BME280;52677;50.898;10.854;2023-10-09T07:49:44;98742.56;;;13.83;100.00
65897;BME280;52677;50.898;10.854;2023-10-09T07:51:53;98742.94;;;13.78;100.00
65897;BME280;52677;50.898;10.854;2023-10-09T07:53:54;98735.78;;;13.81;100.00
65897;BME280;52677;50.898;10.854;2023-10-09T07:55:57;98734.59;;;13.85;100.00
65897;BME280;52677;50.898;10.854;2023-10-09T07:57:58;98739.38;;;13.85;100.00
65897;BME280;52677;50.898;10.854;2023-10-09T08:00:11;98743.34;;;13.87;100.00
65897;BME280;52677;50.898;10.854;2023-10-09T08:02:30;98751.34;;;14.03;100.00
65897;BME280;52677;50.898;10.854;2023-10-09T08:04:33;98756.53;;;14.19;100.00
65897;BME280;52677;50.898;10.854;2023-10-09T08:06:48;98752.97;;;14.25;100.00
65897;BME280;52677;50.898;10.854;2023-10-09T08:08:48;98759.75;;;14.42;100.00
65897;BME280;52677;50.898;10.854;2023-10-09T08:11:07;98755.75;;;14.43;100.00
65897;BME280;52677;50.898;10.854;2023-10-09T08:13:26;98762.13;;;14.40;100.00
65897;BME280;52677;50.898;10.854;2023-10-09T08:15:45;98759.72;;;14.39;100.00
65897;BME280;52677;50.898;10.854;2023-10-09T08:17:53;98764.91;;;14.37;100.00
65897;BME280;52677;50.898;10.854;2023-10-09T08:19:54;98765.69;;;14.33;100.00
65897;BME280;52677;50.898;10.854;2023-10-09T08:21:55;98760.94;;;14.34;100.00
65897;BME280;52677;50.898;10.854;2023-10-09T08:24:30;98768.06;;;14.35;100.00
65897;BME280;52677;50.898;10.854;2023-10-09T08:26:41;98764.91;;;14.40;100.00
65897;BME280;52677;50.898;10.854;2023-10-09T08:29:01;98772.84;;;14.38;100.00
65897;BME280;52677;50.898;10.854;2023-10-09T08:31:18;98757.34;;;14.41;100.00
65897;BME280;52677;50.898;10.854;2023-10-09T08:33:19;98769.31;;;14.52;100.00
65897;BME280;52677;50.898;10.854;2023-10-09T08:35:25;98778.47;;;14.59;100.00
65897;BME280;52677;50.898;10.854;2023-10-09T08:37:33;98779.25;;;14.67;100.00
65897;BME280;52677;50.898;10.854;2023-10-09T08:39:34;98782.44;;;14.73;100.00
65897;BME280;52677;50.898;10.854;2023-10-09T08:41:38;98775.28;;;14.86;100.00
65897;BME280;52677;50.898;10.854;2023-10-09T08:43:39;98783.22;;;14.98;100.00
65897;BME280;52677;50.898;10.854;2023-10-09T08:45:48;98778.44;;;15.02;100.00
65897;BME280;52677;50.898;10.854;2023-10-09T08:47:53;98790.38;;;15.03;100.00
65897;BME280;52677;50.898;10.854;2023-10-09T08:49:56;98798.72;;;15.10;100.00
65897;BME280;52677;50.898;10.854;2023-10-09T08:51:58;98799.91;;;15.12;100.00
65897;BME280;52677;50.898;10.854;2023-10-09T08:54:03;98793.94;;;15.14;100.00
65897;BME280;52677;50.898;10.854;2023-10-09T08:56:04;98803.50;;;15.09;100.00
65897;BME280;52677;50.898;10.854;2023-10-09T08:58:06;98794.34;;;15.05;100.00
65897;BME280;52677;50.898;10.854;2023-10-09T09:00:17;98801.91;;;15.01;100.00
65897;BME280;52677;50.898;10.854;2023-10-09T09:02:21;98798.72;;;14.96;100.00
65897;BME280;52677;50.898;10.854;2023-10-09T09:04:39;98801.91;;;15.01;100.00
65897;BME280;52677;50.898;10.854;2023-10-09T09:06:40;98785.22;;;14.94;100.00
65897;BME280;52677;50.898;10.854;2023-10-09T09:08:42;98780.84;;;14.93;100.00
65897;BME280;52677;50.898;10.854;2023-10-09T09:10:45;98779.22;;;14.88;100.00
65897;BME280;52677;50.898;10.854;2023-10-09T09:12:47;98774.88;;;14.84;100.00
65897;BME280;52677;50.898;10.854;2023-10-09T09:14:53;98762.16;;;14.83;100.00
65897;BME280;52677;50.898;10.854;2023-10-09T09:16:53;98770.50;;;14.83;100.00
65897;BME280;52677;50.898;10.854;2023-10-09T09:19:00;98762.16;;;14.90;100.00
65897;BME280;52677;50.898;10.854;2023-10-09T09:21:20;98767.69;;;14.97;100.00
65897;BME280;52677;50.898;10.854;2023-10-09T09:23:22;98759.75;;;14.99;100.00
65897;BME280;52677;50.898;10.854;2023-10-09T09:25:24;98769.66;;;15.04;100.00
65897;BME280;52677;50.898;10.854;2023-10-09T09:27:47;98757.34;;;15.01;100.00
65897;BME280;52677;50.898;10.854;2023-10-09T09:29:55;98753.75;;;14.97;100.00
65897;BME280;52677;50.898;10.854;2023-10-09T09:31:56;98749.00;;;14.98;100.00
65897;BME280;52677;50.898;10.854;2023-10-09T09:34:16;98746.22;;;14.98;100.00
65897;BME280;52677;50.898;10.854;2023-10-09T09:36:25;98739.03;;;15.00;100.00
65897;BME280;52677;50.898;10.854;2023-10-09T09:38:30;98743.78;;;15.03;100.00
65897;BME280;52677;50.898;10.854;2023-10-09T09:40:47;98742.19;;;15.09;100.00
65897;BME280;52677;50.898;10.854;2023-10-09T09:42:57;98745.34;;;15.18;100.00
65897;BME280;52677;50.898;10.854;2023-10-09T09:45:05;98737.78;;;15.19;100.00
65897;BME280;52677;50.898;10.854;2023-10-09T09:47:07;98727.41;;;15.27;100.00
65897;BME280;52677;50.898;10.854;2023-10-09T09:49:07;98726.22;;;15.28;100.00
65897;BME280;52677;50.898;10.854;2023-10-09T09:51:17;98729.00;;;15.31;100.00
65897;BME280;52677;50.898;10.854;2023-10-09T09:53:17;98723.00;;;15.29;100.00
65897;BME280;52677;50.898;10.854;2023-10-09T09:55:17;98724.25;;;15.25;100.00
65897;BME280;52677;50.898;10.854;2023-10-09T09:57:23;98732.22;;;15.23;100.00
65897;BME280;52677;50.898;10.854;2023-10-09T09:59:29;98725.41;;;15.27;100.00
65897;BME280;52677;50.898;10.854;2023-10-09T10:01:32;98729.00;;;15.28;100.00
65897;BME280;52677;50.898;10.854;2023-10-09T10:03:38;98723.81;;;15.30;100.00
65897;BME280;52677;50.898;10.854;2023-10-09T10:05:44;98723.81;;;15.30;100.00
65897;BME280;52677;50.898;10.854;2023-10-09T10:07:46;98731.81;;;15.24;100.00
65897;BME280;52677;50.898;10.854;2023-10-09T10:09:49;98720.25;;;15.22;100.00
65897;BME280;52677;50.898;10.854;2023-10-09T10:11:54;98729.81;;;15.25;100.00
65897;BME280;52677;50.898;10.854;2023-10-09T10:14:00;98726.66;;;15.23;100.00
65897;BME280;52677;50.898;10.854;2023-10-09T10:16:06;98727.06;;;15.17;100.00
65897;BME280;52677;50.898;10.854;2023-10-09T10:18:13;98731.44;;;15.15;100.00
65897;BME280;52677;50.898;10.854;2023-10-09T10:20:19;98728.25;;;15.13;100.00
65897;BME280;52677;50.898;10.854;2023-10-09T10:22:29;98719.13;;;15.09;100.00
65897;BME280;52677;50.898;10.854;2023-10-09T10:29:20;98731.06;;;15.02;100.00
65897;BME280;52677;50.898;10.854;2023-10-09T10:31:57;98735.06;;;15.01;100.00
65897;BME280;52677;50.898;10.854;2023-10-09T10:35:58;98731.47;;;14.94;100.00
65897;BME280;52677;50.898;10.854;2023-10-09T10:38:25;98725.94;;;14.90;100.00
65897;BME280;52677;50.898;10.854;2023-10-09T10:40:27;98729.09;;;14.92;100.00
65897;BME280;52677;50.898;10.854;2023-10-09T10:42:48;98737.44;;;14.88;100.00
65897;BME280;52677;50.898;10.854;2023-10-09T10:45:17;98729.50;;;14.87;100.00
65897;BME280;52677;50.898;10.854;2023-10-09T10:47:34;98720.34;;;14.86;100.00
65897;BME280;52677;50.898;10.854;2023-10-09T10:49:35;98723.53;;;14.85;100.00
65897;BME280;52677;50.898;10.854;2023-10-09T10:51:38;98725.50;;;14.88;100.00
65897;BME280;52677;50.898;10.854;2023-10-09T10:53:50;98717.19;;;14.84;100.00
65897;BME280;52677;50.898;10.854;2023-10-09T10:55:57;98725.53;;;14.84;100.00
65897;BME280;52677;50.898;10.854;2023-10-09T10:58:18;98721.94;;;14.87;100.00
65897;BME280;52677;50.898;10.854;2023-10-09T11:00:38;98702.44;;;14.87;100.00
65897;BME280;52677;50.898;10.854;2023-10-09T11:02:56;98710.00;;;14.87;100.00
65897;BME280;52677;50.898;10.854;2023-10-09T11:05:13;98694.91;;;14.84;100.00
65897;BME280;52677;50.898;10.854;2023-10-09T11:07:26;98690.50;;;14.87;100.00
65897;BME280;52677;50.898;10.854;2023-10-09T11:09:26;98682.13;;;14.87;100.00
65897;BME280;52677;50.898;10.854;2023-10-09T11:11:36;98674.56;;;14.87;100.00
65897;BME280;52677;50.898;10.854;2023-10-09T11:13:42;98676.56;;;14.91;100.00